Time;durP1;ratioP1;P1;durP2;ratioP2;P2;SDS_P1;SDS_P2;PMS_P1;PMS_P2;Temp;Humidity;BMP_temperature;BMP_pressure;BME280_temperature;BME280_humidity;BME280_pressure;Samples;Min_cycle;Max_cycle;Signal;HPM_P1;HPM_P2
2022/09/08 00:04:36;;;;;;;;;1.00;1.00;;;;;18.75;65.87;100236.22;5054466;28;45628;-78
2022/09/08 00:07:01;;;;;;;;;1.75;1.00;;;;;18.71;65.97;100232.28;5054692;28;45759;-79
2022/09/08 00:09:30;;;;;;;;;0.25;0.00;;;;;18.72;65.66;100236.59;5054695;28;46489;-79
2022/09/08 00:11:56;;;;;;;;;1.00;1.00;;;;;18.69;66.02;100226.28;5054650;28;45664;-80
2022/09/08 00:14:21;;;;;;;;;1.00;0.25;;;;;18.55;65.88;100213.75;5054017;28;45566;-78
2022/09/08 00:16:47;;;;;;;;;1.00;1.00;;;;;18.67;65.80;100243.41;5053840;28;46745;-79
2022/09/08 00:19:12;;;;;;;;;1.00;1.00;;;;;18.67;65.62;100238.09;5053868;28;45720;-80
2022/09/08 00:21:38;;;;;;;;;2.00;0.75;;;;;18.65;65.51;100240.06;5053941;28;45648;-79
2022/09/08 00:24:03;;;;;;;;;1.00;1.00;;;;;18.67;66.00;100235.44;5053725;28;45775;-79
2022/09/08 00:26:29;;;;;;;;;1.00;0.75;;;;;18.62;66.17;100238.59;5053776;28;45587;-79
2022/09/08 00:28:54;;;;;;;;;1.00;1.00;;;;;18.60;66.23;100224.66;5055832;28;45902;-78
2022/09/08 00:34:41;;;;;;;;;1.25;1.00;;;;;18.69;65.63;100234.25;5057204;28;45620;-81
2022/09/08 00:37:06;;;;;;;;;0.25;0.25;;;;;18.72;66.03;100230.44;5057260;28;45539;-78
2022/09/08 00:39:32;;;;;;;;;1.25;1.00;;;;;18.72;66.07;100228.63;5057680;28;45577;-78
2022/09/08 00:41:57;;;;;;;;;1.00;1.00;;;;;18.74;65.42;100236.38;5057505;28;45475;-79
2022/09/08 00:44:55;;;;;;;;;1.50;1.00;;;;;18.75;65.64;100240.72;5057219;28;45513;-78
2022/09/08 00:47:23;;;;;;;;;1.25;1.00;;;;;18.76;65.86;100221.13;5054992;28;46674;-79
2022/09/08 00:49:57;;;;;;;;;1.50;1.00;;;;;18.76;65.94;100219.31;5054548;28;46049;-79
2022/09/08 00:52:26;;;;;;;;;2.00;2.00;;;;;18.79;65.27;100226.09;5055247;28;45652;-79
2022/09/08 00:54:52;;;;;;;;;1.00;1.00;;;;;18.79;66.01;100234.06;5055908;28;45827;-79
2022/09/08 00:57:17;;;;;;;;;2.00;1.00;;;;;18.74;65.92;100220.47;5056376;28;45577;-77
2022/09/08 00:59:45;;;;;;;;;0.25;0.25;;;;;18.78;65.68;100238.56;5054969;28;47122;-78
2022/09/08 01:02:25;;;;;;;;;1.00;1.00;;;;;18.80;65.27;100238.38;5054524;28;45705;-79
2022/09/08 01:05:03;;;;;;;;;0.75;0.75;;;;;18.80;65.38;100239.19;5054556;28;45747;-78
2022/09/08 01:13:35;;;;;;;;;2.00;0.25;;;;;18.88;65.42;100235.69;5054752;28;45770;-77
2022/09/08 01:16:01;;;;;;;;;0.75;0.75;;;;;18.90;65.14;100235.50;5054446;28;45644;-78
2022/09/08 01:18:27;;;;;;;;;3.00;0.50;;;;;18.91;65.63;100235.34;5054416;28;46572;-80
2022/09/08 01:21:01;;;;;;;;;0.25;0.00;;;;;18.91;65.53;100238.00;5054800;28;46105;-77
2022/09/08 01:23:33;;;;;;;;;0.50;0.50;;;;;18.94;65.37;100245.63;5055905;28;45747;-78
2022/09/08 01:26:17;;;;;;;;;1.75;1.00;;;;;18.96;65.54;100243.63;5056417;28;45593;-78
2022/09/08 01:28:49;;;;;;;;;0.00;0.00;;;;;18.98;65.27;100246.09;5056661;28;45645;-79
2022/09/08 01:31:15;;;;;;;;;1.00;0.00;;;;;18.99;65.47;100251.25;5057058;28;45782;-77
2022/09/08 01:33:41;;;;;;;;;1.00;1.00;;;;;18.91;65.06;100230.03;5056609;28;45591;-78
2022/09/08 01:36:11;;;;;;;;;1.00;1.00;;;;;19.01;65.55;100251.91;5056756;28;45710;-80
2022/09/08 01:38:37;;;;;;;;;1.25;1.00;;;;;18.98;65.22;100246.94;5055877;28;47264;-79
2022/09/08 01:41:03;;;;;;;;;1.00;1.00;;;;;19.03;65.18;100257.03;5071649;28;48678;-78
2022/09/08 01:43:28;;;;;;;;;2.25;1.00;;;;;19.01;64.92;100256.38;5054510;28;45863;-79
2022/09/08 01:45:55;;;;;;;;;0.75;0.75;;;;;18.98;65.27;100248.75;5056447;28;45467;-79
2022/09/08 01:48:21;;;;;;;;;2.00;1.00;;;;;18.98;65.30;100254.91;5058345;28;46627;-81
2022/09/08 01:50:47;;;;;;;;;1.00;0.75;;;;;18.92;64.90;100250.28;5056403;28;47138;-79
2022/09/08 01:53:12;;;;;;;;;1.00;0.75;;;;;19.01;65.55;100270.47;5055857;28;45605;-78
2022/09/08 01:55:37;;;;;;;;;2.00;1.00;;;;;19.00;65.05;100268.03;5056172;28;45854;-80
2022/09/08 01:58:03;;;;;;;;;0.00;0.00;;;;;18.99;65.13;100272.50;5055966;28;47317;-79
2022/09/08 02:00:28;;;;;;;;;1.75;0.75;;;;;18.93;65.21;100270.53;5055987;28;46101;-80
2022/09/08 02:02:54;;;;;;;;;0.25;0.25;;;;;18.95;65.26;100278.31;5055727;28;45777;-80
2022/09/08 02:05:19;;;;;;;;;2.00;1.00;;;;;18.92;65.42;100266.22;5056316;28;45563;-76
2022/09/08 02:07:44;;;;;;;;;0.75;0.75;;;;;18.92;65.60;100268.88;5055835;28;47256;-79
2022/09/08 02:10:10;;;;;;;;;1.75;1.00;;;;;18.79;65.02;100252.63;5056147;28;45977;-79
2022/09/08 02:12:35;;;;;;;;;0.25;0.00;;;;;18.86;65.10;100261.56;5055626;28;45631;-78
2022/09/08 02:15:00;;;;;;;;;1.00;1.00;;;;;18.86;64.82;100264.22;5055660;28;45672;-79
2022/09/08 02:20:47;;;;;;;;;1.25;1.25;;;;;18.88;65.56;100266.72;5055618;28;46101;-78
2022/09/08 02:23:13;;;;;;;;;1.00;0.25;;;;;18.91;65.45;100269.84;5055583;28;45596;-80
2022/09/08 02:25:38;;;;;;;;;1.75;1.00;;;;;18.91;65.29;100277.81;5055835;28;45556;-79
2022/09/08 02:28:03;;;;;;;;;1.75;1.00;;;;;18.90;65.26;100267.38;5055587;28;47495;-79
2022/09/08 02:30:30;;;;;;;;;1.00;0.00;;;;;18.88;65.24;100262.25;5055726;28;45628;-79
2022/09/08 02:32:56;;;;;;;;;1.00;1.00;;;;;18.96;65.42;100259.56;5055528;28;45696;-79
2022/09/08 02:35:21;;;;;;;;;1.00;1.00;;;;;18.91;65.42;100253.09;5054314;28;45624;-81
2022/09/08 02:37:46;;;;;;;;;1.25;1.00;;;;;18.97;65.39;100255.06;5055510;28;47418;-79
2022/09/08 02:40:12;;;;;;;;;2.00;1.00;;;;;18.94;65.36;100250.13;5055523;28;46967;-80
2022/09/08 02:42:38;;;;;;;;;2.00;1.00;;;;;18.95;65.29;100249.13;5055439;28;45484;-78
2022/09/08 02:45:04;;;;;;;;;0.75;0.75;;;;;18.92;65.54;100247.63;5056103;28;45864;-79
2022/09/08 02:50:51;;;;;;;;;2.25;1.00;;;;;18.89;65.30;100247.97;5043163;28;45694;-78
2022/09/08 02:53:17;;;;;;;;;2.00;2.00;;;;;18.88;65.58;100246.31;5055200;28;45697;-78
2022/09/08 02:55:43;;;;;;;;;2.25;1.25;;;;;18.69;65.45;100207.72;5055728;28;45624;-79
2022/09/08 02:58:10;;;;;;;;;1.25;1.25;;;;;18.85;65.06;100246.66;5055241;28;45513;-76
2022/09/08 03:00:38;;;;;;;;;1.25;1.25;;;;;18.81;65.33;100237.38;5055374;28;46077;-78
2022/09/08 03:06:25;;;;;;;;;2.25;1.00;;;;;18.73;65.40;100221.50;5054872;28;45471;-77
2022/09/08 03:08:50;;;;;;;;;1.00;1.00;;;;;18.53;65.78;100183.03;5054685;28;46250;-78
2022/09/08 03:11:16;;;;;;;;;1.00;1.00;;;;;18.70;65.81;100221.81;5054610;28;45605;-78
2022/09/08 03:13:42;;;;;;;;;2.25;1.25;;;;;18.66;65.49;100218.69;5054766;28;45743;-78
2022/09/08 03:16:07;;;;;;;;;1.75;1.00;;;;;18.64;65.93;100217.19;5054772;28;45821;-78
2022/09/08 03:18:33;;;;;;;;;2.00;1.25;;;;;18.61;66.23;100223.69;5055021;28;45565;-78
2022/09/08 03:21:04;;;;;;;;;2.25;1.50;;;;;18.48;66.06;100195.97;5054740;28;45645;-78
2022/09/08 03:23:31;;;;;;;;;1.00;1.00;;;;;18.54;66.53;100220.03;5054611;28;45458;-78
2022/09/08 03:26:01;;;;;;;;;1.00;1.00;;;;;18.48;66.12;100209.25;5055128;28;45780;-76
2022/09/08 03:28:26;;;;;;;;;2.50;1.00;;;;;18.36;66.34;100187.53;5054658;28;45612;-78
2022/09/08 03:30:52;;;;;;;;;2.00;1.00;;;;;18.48;66.59;100214.53;5054535;28;46141;-77
2022/09/08 03:36:39;;;;;;;;;1.00;1.00;;;;;18.40;66.77;100205.63;5054522;28;45697;-78
2022/09/08 03:39:05;;;;;;;;;2.00;2.00;;;;;18.42;66.35;100205.44;5054621;28;46286;-77
2022/09/08 03:41:30;;;;;;;;;2.00;1.25;;;;;18.34;66.36;100201.00;5054459;28;46132;-78
2022/09/08 03:43:55;;;;;;;;;2.00;1.00;;;;;18.32;66.47;100192.38;5054400;28;45611;-78
2022/09/08 03:46:22;;;;;;;;;3.00;1.00;;;;;18.28;66.91;100195.53;5054518;28;45745;-80
2022/09/08 03:48:47;;;;;;;;;3.00;2.00;;;;;18.39;66.73;100200.47;5054267;28;45633;-77
2022/09/08 03:51:15;;;;;;;;;2.25;2.00;;;;;18.38;66.53;100209.44;5054226;28;45577;-78
2022/09/08 03:53:42;;;;;;;;;3.00;2.00;;;;;18.36;67.16;100209.59;5054376;28;45782;-78
2022/09/08 03:56:09;;;;;;;;;2.00;2.00;;;;;18.31;66.59;100192.53;5054423;28;45661;-76
2022/09/08 03:58:36;;;;;;;;;1.25;1.00;;;;;18.33;67.01;100203.81;5054438;28;45538;-79
2022/09/08 04:01:06;;;;;;;;;3.25;2.75;;;;;18.24;66.97;100197.69;5054017;28;46360;-78
2022/09/08 04:06:53;;;;;;;;;2.75;2.00;;;;;18.24;67.17;100200.34;5057825;28;45670;-80
2022/09/08 04:09:19;;;;;;;;;2.00;2.00;;;;;18.31;66.93;100209.28;5058033;28;45615;-81
2022/09/08 04:11:44;;;;;;;;;2.75;1.50;;;;;18.30;66.95;100204.16;5057593;28;45586;-81
2022/09/08 04:14:09;;;;;;;;;2.00;1.00;;;;;18.30;67.43;100207.59;5057507;28;45743;-79
2022/09/08 04:16:35;;;;;;;;;2.00;2.00;;;;;18.28;67.46;100199.00;5057846;28;45478;-79
2022/09/08 04:22:24;;;;;;;;;2.00;2.00;;;;;18.20;67.72;100193.72;5057563;28;45529;-78
2022/09/08 04:24:50;;;;;;;;;4.00;2.50;;;;;18.17;67.29;100195.88;5058872;28;45694;-80
2022/09/08 04:27:17;;;;;;;;;3.75;2.00;;;;;18.19;66.93;100199.19;5059501;28;45626;-80
2022/09/08 04:29:43;;;;;;;;;2.75;2.75;;;;;18.24;67.11;100202.16;5057992;28;46665;-80
2022/09/08 04:32:08;;;;;;;;;1.25;1.25;;;;;18.19;67.51;100200.00;5058645;28;46198;-80
2022/09/08 04:34:35;;;;;;;;;2.25;2.25;;;;;18.23;67.15;100192.56;5057530;28;45787;-80
2022/09/08 04:37:01;;;;;;;;;3.00;2.00;;;;;18.22;67.97;100198.84;5057687;28;45724;-80
2022/09/08 04:39:27;;;;;;;;;4.00;3.00;;;;;18.07;67.69;100166.91;5057101;28;46293;-80
2022/09/08 04:41:52;;;;;;;;;1.50;1.25;;;;;18.21;67.55;100187.41;5057507;28;45648;-81
2022/09/08 04:44:18;;;;;;;;;5.00;2.25;;;;;18.21;67.28;100191.88;5057849;28;45534;-79
2022/09/08 04:46:44;;;;;;;;;2.00;2.00;;;;;18.19;67.26;100197.34;5057320;28;45740;-80
2022/09/08 04:52:31;;;;;;;;;2.00;1.25;;;;;18.22;67.90;100197.03;5045851;28;45686;-81
2022/09/08 04:54:57;;;;;;;;;3.00;2.00;;;;;18.16;67.88;100181.78;5072251;28;45640;-79
2022/09/08 04:57:22;;;;;;;;;2.00;1.00;;;;;18.26;67.40;100197.50;5056856;28;45712;-80
2022/09/08 04:59:47;;;;;;;;;1.25;1.00;;;;;18.25;67.93;100199.34;5056957;28;45902;-80
2022/09/08 05:02:13;;;;;;;;;3.00;2.00;;;;;18.26;67.35;100195.69;5056943;28;46052;-79
2022/09/08 05:04:38;;;;;;;;;2.00;1.75;;;;;18.20;67.81;100182.25;5056756;28;45744;-79
2022/09/08 05:07:04;;;;;;;;;2.50;2.00;;;;;18.29;67.94;100195.38;5057073;28;45518;-80
2022/09/08 05:09:29;;;;;;;;;3.00;2.00;;;;;18.31;67.75;100196.00;5056797;28;45434;-81
2022/09/08 05:11:54;;;;;;;;;1.00;1.00;;;;;18.31;67.41;100201.31;5056755;28;46018;-80
2022/09/08 05:14:20;;;;;;;;;1.75;1.75;;;;;18.24;67.29;100186.25;5055598;28;45663;-79
2022/09/08 05:16:46;;;;;;;;;3.00;2.00;;;;;18.35;67.76;100201.81;5055407;28;45770;-80
2022/09/08 05:22:33;;;;;;;;;3.00;3.00;;;;;18.32;67.38;100196.84;5057476;28;45877;-81
2022/09/08 05:25:00;;;;;;;;;4.50;3.00;;;;;18.32;67.40;100196.84;5056054;28;45601;-80
2022/09/08 05:27:25;;;;;;;;;3.50;2.25;;;;;18.27;67.57;100186.75;5056246;28;45913;-80
2022/09/08 05:29:50;;;;;;;;;3.00;2.00;;;;;18.34;67.11;100206.28;5056665;28;45628;-79
2022/09/08 05:32:16;;;;;;;;;3.00;2.00;;;;;18.35;67.56;100207.13;5055895;28;46067;-79
2022/09/08 05:38:03;;;;;;;;;3.00;3.00;;;;;18.37;67.64;100207.78;5055845;28;45535;-77
2022/09/08 05:40:29;;;;;;;;;2.00;2.00;;;;;18.38;67.65;100212.91;5056088;28;46223;-78
2022/09/08 05:42:54;;;;;;;;;5.50;5.25;;;;;18.42;67.46;100213.41;5055909;28;45960;-79
2022/09/08 05:45:20;;;;;;;;;1.50;1.00;;;;;18.37;67.30;100202.47;5055676;28;45486;-78
2022/09/08 05:47:45;;;;;;;;;2.00;2.00;;;;;18.39;67.17;100206.63;5056085;28;45536;-79
2022/09/08 05:50:10;;;;;;;;;4.00;3.00;;;;;18.46;67.01;100212.88;5055797;28;45506;-78
2022/09/08 05:52:35;;;;;;;;;3.00;3.00;;;;;18.44;67.06;100198.16;5055201;28;45551;-85
2022/09/08 05:55:01;;;;;;;;;5.50;3.00;;;;;18.54;66.94;100214.72;5056134;28;45524;-76
2022/09/08 05:57:27;;;;;;;;;3.00;3.00;;;;;18.56;67.01;100215.41;5055254;28;45651;-80
2022/09/08 05:59:53;;;;;;;;;6.50;5.00;;;;;18.61;66.94;100206.94;5054913;28;46680;-76
2022/09/08 06:02:18;;;;;;;;;3.00;3.00;;;;;18.62;67.53;100213.91;5055101;28;45688;-76
2022/09/08 06:08:09;;;;;;;;;3.75;2.00;;;;;18.67;67.13;100216.84;5055029;28;45825;-77
2022/09/08 06:10:35;;;;;;;;;3.25;3.00;;;;;18.70;66.58;100221.81;5055855;28;46627;-79
2022/09/08 06:13:00;;;;;;;;;4.00;2.75;;;;;18.73;66.93;100222.28;5070759;27;46851;-88
2022/09/08 06:15:26;;;;;;;;;3.25;2.75;;;;;18.76;66.89;100218.47;5056005;28;45633;-79
2022/09/08 06:17:51;;;;;;;;;2.75;1.50;;;;;18.67;66.90;100200.94;5056773;28;45571;-78
2022/09/08 06:23:39;;;;;;;;;2.75;2.75;;;;;18.83;66.40;100228.25;5059796;28;45683;-82
2022/09/08 06:26:37;;;;;;;;;5.00;4.00;;;;;18.89;66.67;100225.91;5058294;28;45583;-81
2022/09/08 06:29:15;;;;;;;;;2.00;2.00;;;;;18.91;66.11;100224.72;5057908;28;45749;-85
2022/09/08 06:31:48;;;;;;;;;3.25;3.25;;;;;18.92;66.61;100207.81;5057332;28;46784;-80
2022/09/08 06:34:28;;;;;;;;;2.75;2.25;;;;;18.93;66.08;100209.47;5057223;28;45513;-86
2022/09/08 06:37:00;;;;;;;;;3.50;2.75;;;;;19.04;66.19;100214.41;5056966;28;45698;-79
2022/09/08 06:39:32;;;;;;;;;2.00;1.00;;;;;18.91;65.96;100187.56;5057554;28;45448;-81
2022/09/08 06:42:09;;;;;;;;;4.00;2.75;;;;;19.10;65.64;100207.56;5071861;28;47030;-82
2022/09/08 06:44:39;;;;;;;;;2.25;2.25;;;;;19.13;65.69;100209.84;5056488;28;45724;-82
2022/09/08 06:47:13;;;;;;;;;2.50;2.25;;;;;19.15;65.47;100213.19;5058692;28;45633;-85
2022/09/08 06:49:38;;;;;;;;;3.75;3.00;;;;;19.18;65.32;100216.31;5057550;28;45639;-80
2022/09/08 06:52:15;;;;;;;;;2.75;2.75;;;;;19.21;64.96;100213.31;5056377;28;46516;-81
2022/09/08 06:55:06;;;;;;;;;4.75;4.75;;;;;19.25;65.04;100204.00;5057935;28;45554;-80
2022/09/08 06:58:04;;;;;;;;;3.00;2.75;;;;;19.32;64.90;100214.75;5056392;28;45660;-82
2022/09/08 07:00:53;;;;;;;;;4.50;3.50;;;;;19.37;64.83;100216.88;5056714;28;45616;-80
2022/09/08 07:06:58;;;;;;;;;5.25;3.75;;;;;19.46;64.51;100216.69;5054260;28;46044;-79
2022/09/08 07:09:42;;;;;;;;;3.75;3.25;;;;;19.49;64.57;100213.66;5054152;28;45626;-79
2022/09/08 07:12:39;;;;;;;;;4.00;3.00;;;;;19.54;64.59;100218.47;5053813;28;45935;-81
2022/09/08 07:15:30;;;;;;;;;4.75;3.00;;;;;19.57;64.34;100221.59;5054211;28;46584;-79
2022/09/08 07:18:12;;;;;;;;;6.00;4.00;;;;;19.58;63.93;100215.28;5053648;28;45861;-81
2022/09/08 07:24:01;;;;;;;;;5.75;3.50;;;;;19.65;63.80;100213.53;5052696;28;45696;-80
2022/09/08 07:26:47;;;;;;;;;4.00;4.00;;;;;19.63;64.12;100204.94;5036961;28;48783;-79
2022/09/08 07:29:21;;;;;;;;;4.75;3.00;;;;;19.72;63.66;100211.00;5055385;28;46188;-82
2022/09/08 07:31:50;;;;;;;;;2.50;2.50;;;;;19.76;63.73;100214.97;5058970;28;45719;-81
2022/09/08 07:34:21;;;;;;;;;2.75;2.50;;;;;19.79;63.28;100211.13;5058108;28;45659;-83
2022/09/08 07:37:31;;;;;;;;;2.25;2.25;;;;;19.81;63.80;100214.44;5059544;28;46373;-80
2022/09/08 07:40:00;;;;;;;;;5.75;3.00;;;;;19.83;63.57;100215.06;5050554;28;45855;-77
2022/09/08 07:42:26;;;;;;;;;4.50;4.25;;;;;19.72;63.15;100191.56;5053152;28;45784;-82
2022/09/08 07:44:58;;;;;;;;;5.00;3.25;;;;;19.66;63.16;100191.28;5056374;28;45837;-79
2022/09/08 07:47:57;;;;;;;;;5.00;3.50;;;;;19.88;63.29;100212.72;5059980;28;47761;-80
2022/09/08 07:50:56;;;;;;;;;4.00;3.25;;;;;19.88;63.15;100224.19;5059998;28;46277;-82
2022/09/08 07:53:52;;;;;;;;;5.25;3.75;;;;;19.91;63.21;100220.34;5058767;28;45681;-80
2022/09/08 07:56:56;;;;;;;;;4.25;3.25;;;;;19.90;63.00;100216.84;5059853;28;45689;-79
2022/09/08 07:59:46;;;;;;;;;5.00;3.25;;;;;19.93;63.28;100221.81;5058342;28;46995;-78
2022/09/08 08:02:20;;;;;;;;;3.50;3.00;;;;;19.96;62.89;100217.97;5059917;28;46066;-84
2022/09/08 08:08:20;;;;;;;;;6.50;4.00;;;;;20.01;63.02;100212.94;5055765;28;45646;-81
2022/09/08 08:10:54;;;;;;;;;3.50;3.00;;;;;20.06;62.94;100226.53;5058586;28;45635;-82
2022/09/08 08:14:00;;;;;;;;;4.50;4.00;;;;;20.10;62.73;100214.53;5057282;28;45978;-82
2022/09/08 08:16:53;;;;;;;;;6.00;3.50;;;;;20.13;62.46;100222.94;5060611;28;45314;-81
2022/09/08 08:19:47;;;;;;;;;5.25;4.00;;;;;20.16;62.40;100218.28;5059185;28;45570;-79
2022/09/08 08:22:16;;;;;;;;;6.00;4.75;;;;;20.18;62.10;100218.94;5056621;28;46839;-80
2022/09/08 08:24:50;;;;;;;;;4.00;4.00;;;;;20.18;61.99;100218.94;5058128;28;45727;-81
2022/09/08 08:27:28;;;;;;;;;3.75;1.25;;;;;20.23;61.95;100221.88;5058902;28;45664;-78
2022/09/08 08:30:04;;;;;;;;;3.25;3.00;;;;;20.24;61.90;100235.03;5064833;28;45738;-80
2022/09/08 08:32:37;;;;;;;;;3.00;3.00;;;;;20.25;61.73;100223.34;5062865;28;46631;-82
2022/09/08 08:35:07;;;;;;;;;4.00;4.00;;;;;20.26;61.62;100232.16;5060837;28;47119;-79
2022/09/08 08:37:38;;;;;;;;;2.50;2.00;;;;;20.28;61.71;100227.50;5058049;28;45720;-80
2022/09/08 08:40:22;;;;;;;;;3.25;2.00;;;;;20.27;61.08;100229.31;5058734;28;45739;-86
2022/09/08 08:43:05;;;;;;;;;5.00;3.00;;;;;20.32;61.36;100229.63;5059528;28;46379;-83
2022/09/08 08:45:30;;;;;;;;;2.50;2.25;;;;;20.37;61.18;100239.75;5060290;28;45613;-86
2022/09/08 08:48:11;;;;;;;;;2.50;2.00;;;;;20.38;60.89;100236.91;5061536;28;45790;-81
2022/09/08 08:50:48;;;;;;;;;2.25;1.25;;;;;20.39;60.81;100243.06;5068894;28;45693;-79
2022/09/08 08:54:03;;;;;;;;;3.75;2.25;;;;;20.32;60.76;100226.97;5064826;28;46805;-83
2022/09/08 08:56:45;;;;;;;;;2.00;1.75;;;;;20.37;60.34;100250.38;5066509;28;45933;-81
2022/09/08 08:59:25;;;;;;;;;4.00;2.00;;;;;20.44;60.80;100261.97;5061759;28;45557;-81
2022/09/08 09:02:08;;;;;;;;;2.00;1.75;;;;;20.49;60.32;100267.56;5060966;28;45750;-81
2022/09/08 09:08:33;;;;;;;;;2.75;2.50;;;;;20.52;60.38;100262.69;5057056;28;45749;-80
2022/09/08 09:11:17;;;;;;;;;2.75;1.50;;;;;20.51;60.11;100258.38;5071991;28;45845;-81
2022/09/08 09:13:46;;;;;;;;;2.75;2.25;;;;;20.51;60.12;100269.03;5056805;28;45549;-79
2022/09/08 09:16:17;;;;;;;;;3.25;1.75;;;;;20.46;60.02;100266.09;5053787;28;48763;-76
2022/09/08 09:19:12;;;;;;;;;4.25;2.75;;;;;20.43;60.41;100258.47;5054905;28;46277;-77
2022/09/08 09:25:11;;;;;;;;;4.00;3.00;;;;;20.47;60.32;100266.91;5052074;28;45864;-76
2022/09/08 09:27:42;;;;;;;;;3.00;2.75;;;;;20.51;60.49;100265.56;5053754;28;47456;-79
2022/09/08 09:30:19;;;;;;;;;3.25;1.75;;;;;20.57;60.48;100269.34;5055504;28;46523;-77
2022/09/08 09:32:58;;;;;;;;;3.00;3.00;;;;;20.63;60.24;100277.41;5055005;28;45786;-80
2022/09/08 09:35:45;;;;;;;;;3.75;2.75;;;;;20.66;60.32;100263.75;5055336;28;45558;-79
2022/09/08 09:38:56;;;;;;;;;3.50;2.75;;;;;20.74;60.28;100266.31;5054687;28;46289;-78
2022/09/08 09:41:40;;;;;;;;;4.50;3.75;;;;;20.81;60.27;100264.56;5054694;28;47156;-78
2022/09/08 09:44:27;;;;;;;;;4.00;3.00;;;;;20.87;60.14;100261.19;5054769;28;45680;-77
2022/09/08 09:47:24;;;;;;;;;2.75;2.00;;;;;20.94;59.84;100261.28;5055279;28;45524;-80
2022/09/08 09:53:15;;;;;;;;;3.75;2.50;;;;;21.00;59.12;100252.50;5052433;28;45838;-78
2022/09/08 09:56:18;;;;;;;;;2.00;1.50;;;;;20.97;59.32;100260.88;5052335;28;46140;-78
2022/09/08 09:59:12;;;;;;;;;3.50;2.25;;;;;20.89;59.47;100247.69;5052832;28;45819;-77
2022/09/08 10:02:05;;;;;;;;;2.00;2.00;;;;;20.90;59.58;100242.16;5051938;28;45646;-79
2022/09/08 10:04:37;;;;;;;;;2.00;1.75;;;;;20.91;60.05;100259.78;5052906;28;46055;-76
2022/09/08 10:07:24;;;;;;;;;1.75;1.75;;;;;20.93;60.12;100252.44;5035822;28;45717;-78
2022/09/08 10:10:11;;;;;;;;;2.00;2.00;;;;;20.94;59.50;100254.06;5054422;28;45692;-78
2022/09/08 10:13:00;;;;;;;;;4.50;2.75;;;;;20.93;59.60;100247.13;5051572;28;46918;-78
2022/09/08 10:16:03;;;;;;;;;2.50;2.25;;;;;20.91;59.79;100238.47;5052635;28;45971;-78
2022/09/08 10:18:34;;;;;;;;;5.00;2.50;;;;;20.95;59.83;100233.59;5052457;28;45796;-78
2022/09/08 10:24:48;;;;;;;;;1.50;1.50;;;;;21.02;59.77;100231.84;5051592;28;46058;-77
2022/09/08 10:27:29;;;;;;;;;2.50;2.50;;;;;21.03;59.16;100227.34;5051864;28;46053;-78
2022/09/08 10:30:31;;;;;;;;;3.25;1.50;;;;;21.02;59.60;100225.69;5051571;28;45740;-78
2022/09/08 10:33:28;;;;;;;;;2.50;1.50;;;;;21.02;59.71;100218.53;5052736;28;45850;-79
2022/09/08 10:36:06;;;;;;;;;2.75;2.00;;;;;21.07;59.79;100216.13;5053161;28;45741;-78
2022/09/08 10:39:06;;;;;;;;;3.75;3.25;;;;;21.12;59.88;100205.75;5054023;28;45966;-78
2022/09/08 10:41:57;;;;;;;;;2.00;2.00;;;;;21.15;59.49;100205.41;5053660;28;45895;-78
2022/09/08 10:44:41;;;;;;;;;3.50;3.00;;;;;21.13;59.23;100210.06;5053908;28;45686;-77
2022/09/08 10:47:16;;;;;;;;;3.25;2.00;;;;;21.09;59.00;100206.13;5053910;28;46466;-79
2022/09/08 10:50:09;;;;;;;;;3.25;2.00;;;;;21.09;59.68;100203.47;5054050;28;46123;-78
2022/09/08 10:53:11;;;;;;;;;4.50;2.75;;;;;21.15;59.49;100212.59;5051102;28;46000;-77
2022/09/08 10:55:57;;;;;;;;;2.75;1.75;;;;;21.22;58.99;100216.13;5053953;28;45748;-78
2022/09/08 10:59:02;;;;;;;;;1.00;1.00;;;;;21.29;58.08;100214.38;5053677;28;46514;-80
2022/09/08 11:02:07;;;;;;;;;2.00;1.50;;;;;21.37;57.93;100214.28;5053642;28;46344;-78
2022/09/08 11:05:11;;;;;;;;;0.50;0.50;;;;;21.48;57.61;100212.97;5054100;28;46151;-83
2022/09/08 11:11:04;;;;;;;;;0.75;0.75;;;;;21.56;57.17;100211.00;5053449;28;45761;-79
2022/09/08 11:13:43;;;;;;;;;1.25;1.00;;;;;21.61;56.64;100202.41;5053103;28;46006;-80
2022/09/08 11:16:39;;;;;;;;;2.00;1.00;;;;;21.63;56.41;100209.22;5054153;28;45827;-78
2022/09/08 11:19:32;;;;;;;;;1.00;1.00;;;;;21.69;56.05;100213.78;5054348;28;45769;-78
2022/09/08 11:22:13;;;;;;;;;1.00;1.00;;;;;21.73;55.88;100207.06;5053132;28;46294;-81
2022/09/08 11:24:38;;;;;;;;;1.25;1.00;;;;;21.78;55.37;100204.63;5053891;28;46387;-78
2022/09/08 11:27:28;;;;;;;;;1.25;1.00;;;;;21.84;55.29;100221.72;5054904;28;45709;-76
2022/09/08 11:30:20;;;;;;;;;1.50;1.00;;;;;21.91;55.48;100213.78;5053750;28;45539;-77
2022/09/08 11:33:07;;;;;;;;;1.00;1.00;;;;;21.97;55.28;100219.19;5052217;28;46312;-77
2022/09/08 11:35:57;;;;;;;;;1.00;1.00;;;;;22.00;54.84;100224.16;5053653;28;45653;-78
2022/09/08 11:38:25;;;;;;;;;3.00;1.00;;;;;22.01;54.39;100215.13;5053319;28;45688;-78
2022/09/08 11:41:09;;;;;;;;;2.75;1.00;;;;;22.01;54.55;100225.81;5051990;28;45740;-78
2022/09/08 11:43:57;;;;;;;;;4.00;2.00;;;;;21.97;54.43;100215.72;5053165;28;46651;-80
2022/09/08 11:46:42;;;;;;;;;2.50;1.75;;;;;21.95;54.45;100218.56;5052266;28;45832;-76
2022/09/08 11:49:55;;;;;;;;;1.00;1.00;;;;;21.94;54.30;100214.25;5053518;28;45722;-80
2022/09/08 11:56:47;;;;;;;;;1.00;1.00;;;;;21.93;54.87;100203.72;5032607;28;46315;-78
2022/09/08 11:59:18;;;;;;;;;1.00;1.00;;;;;21.93;54.96;100203.72;5033096;28;46301;-78
2022/09/08 12:02:13;;;;;;;;;2.00;0.00;;;;;21.90;54.57;100202.28;5033082;28;45673;-79
2022/09/08 12:04:47;;;;;;;;;0.50;0.50;;;;;21.73;54.97;100183.06;5030876;28;45905;-79
2022/09/08 12:10:53;;;;;;;;;2.25;1.00;;;;;21.98;53.68;100186.16;5031309;28;45978;-79
2022/09/08 12:13:36;;;;;;;;;1.00;1.00;;;;;22.03;53.55;100185.56;5031150;28;45895;-80
2022/09/08 12:16:20;;;;;;;;;2.00;1.00;;;;;22.12;53.83;100184.44;5031540;28;45927;-79
2022/09/08 12:19:07;;;;;;;;;2.75;1.00;;;;;22.20;53.55;100189.59;5031250;28;46563;-78
2022/09/08 12:21:51;;;;;;;;;1.25;1.00;;;;;22.26;53.66;100188.84;5031385;28;46425;-78
2022/09/08 12:24:37;;;;;;;;;1.00;1.00;;;;;22.30;52.86;100192.75;5033397;28;45892;-79
2022/09/08 12:27:21;;;;;;;;;4.00;1.00;;;;;22.29;52.48;100190.31;5035341;28;45588;-77
2022/09/08 12:30:04;;;;;;;;;2.00;1.00;;;;;22.28;53.29;100191.31;5034902;28;45980;-78
2022/09/08 12:33:01;;;;;;;;;1.00;1.00;;;;;22.28;53.35;100191.31;5033769;28;46068;-77
2022/09/08 12:35:50;;;;;;;;;1.00;1.00;;;;;22.31;52.98;100194.41;5034571;28;45592;-79
2022/09/08 12:38:24;;;;;;;;;2.00;1.00;;;;;22.33;52.71;100192.38;5053553;28;45879;-77
2022/09/08 12:41:05;;;;;;;;;1.25;0.75;;;;;22.37;52.69;100180.28;5053888;28;45659;-79
2022/09/08 12:43:40;;;;;;;;;1.00;1.00;;;;;22.38;53.04;100191.78;5053563;28;46324;-79
2022/09/08 12:46:20;;;;;;;;;1.25;1.25;;;;;22.37;53.22;100187.47;5053941;28;45736;-79
2022/09/08 12:48:46;;;;;;;;;1.75;1.25;;;;;22.37;52.66;100195.47;5053889;28;45773;-76
2022/09/08 12:51:29;;;;;;;;;1.00;1.00;;;;;22.40;53.20;100184.44;5053842;28;45930;-78
2022/09/08 12:54:25;;;;;;;;;2.00;1.50;;;;;22.41;53.44;100186.06;5053116;28;46582;-75
2022/09/08 12:57:28;;;;;;;;;2.25;1.00;;;;;22.37;53.46;100180.28;5053298;28;46060;-78
2022/09/08 13:00:06;;;;;;;;;1.25;1.25;;;;;22.37;54.10;100174.94;5053879;28;45951;-77
2022/09/08 13:02:57;;;;;;;;;3.00;1.00;;;;;22.40;53.94;100181.75;5052664;28;45879;-76
2022/09/08 13:05:29;;;;;;;;;2.00;1.00;;;;;22.41;54.44;100184.22;5053501;28;45847;-77
2022/09/08 13:11:34;;;;;;;;;1.50;1.00;;;;;22.37;54.34;100169.59;5053255;28;45551;-76
2022/09/08 13:14:11;;;;;;;;;4.00;2.75;;;;;22.37;54.81;100163.44;5052977;28;46653;-77
2022/09/08 13:16:43;;;;;;;;;3.00;0.75;;;;;22.40;54.00;100163.88;5035415;28;46099;-76
2022/09/08 13:19:23;;;;;;;;;1.25;1.00;;;;;22.44;54.12;100164.31;5035612;28;45560;-77
2022/09/08 13:28:26;;;;;;;;;2.00;1.00;;;;;22.67;51.77;100154.19;5037350;28;45864;-78
2022/09/08 13:31:12;;;;;;;;;1.50;0.75;;;;;22.75;51.27;100159.38;5037524;28;45661;-82
2022/09/08 13:33:56;;;;;;;;;0.00;0.00;;;;;22.84;50.53;100144.81;5034652;28;45569;-79
2022/09/08 13:36:35;;;;;;;;;1.00;1.00;;;;;22.96;50.73;100161.09;5033371;28;47721;-79